Time;durP1;ratioP1;P1;durP2;ratioP2;P2;SDS_P1;SDS_P2;PMS_P1;PMS_P2;Temp;Humidity;BMP_temperature;BMP_pressure;BME280_temperature;BME280_humidity;BME280_pressure;Samples;Min_cycle;Max_cycle;Signal;HPM_P1;HPM_P2
2022/06/08 00:00:01;;;;;;;7.37;5.70;;;;;;;;;;5004154;28;20957;-81
2022/06/08 00:02:29;;;;;;;7.17;6.47;;;;;;;;;;5003130;28;21024;-82
2022/06/08 00:04:55;;;;;;;7.13;6.40;;;;;;;;;;5004807;28;20504;-79
2022/06/08 00:07:23;;;;;;;7.47;6.77;;;;;;;;;;5001437;28;20504;-80
2022/06/08 00:09:49;;;;;;;7.10;6.40;;;;;;;;;;5003077;28;20454;-80
2022/06/08 00:12:16;;;;;;;8.83;6.77;;;;;;;;;;5001819;28;20441;-82
2022/06/08 00:14:42;;;;;;;7.90;6.37;;;;;;;;;;5005394;28;20539;-82
2022/06/08 00:17:09;;;;;;;8.77;7.90;;;;;;;;;;5004841;28;20474;-83
2022/06/08 00:19:35;;;;;;;8.73;7.70;;;;;;;;;;5004476;28;20485;-80
2022/06/08 00:22:02;;;;;;;8.73;7.83;;;;;;;;;;5004932;28;20474;-80
2022/06/08 00:24:30;;;;;;;9.90;8.20;;;;;;;;;;5005122;28;20442;-82
2022/06/08 00:26:56;;;;;;;7.83;7.03;;;;;;;;;;5003862;28;20471;-79
2022/06/08 00:29:22;;;;;;;11.03;7.50;;;;;;;;;;5002969;28;20446;-81
2022/06/08 00:31:49;;;;;;;13.40;8.13;;;;;;;;;;5004629;28;20470;-80
2022/06/08 00:34:15;;;;;;;8.57;7.37;;;;;;;;;;5005247;28;20458;-81
2022/06/08 00:36:41;;;;;;;9.83;8.83;;;;;;;;;;5002353;28;20481;-80
2022/06/08 00:39:07;;;;;;;9.23;8.33;;;;;;;;;;5005214;28;20481;-81
2022/06/08 00:41:39;;;;;;;9.60;8.20;;;;;;;;;;5004911;28;20463;-82
2022/06/08 00:44:07;;;;;;;13.00;8.50;;;;;;;;;;5004198;28;20442;-81
2022/06/08 00:46:33;;;;;;;9.47;8.57;;;;;;;;;;5004386;28;20486;-80
2022/06/08 00:49:03;;;;;;;8.97;8.10;;;;;;;;;;5005503;28;20879;-81
2022/06/08 00:51:29;;;;;;;12.20;9.07;;;;;;;;;;5003812;28;20470;-80
2022/06/08 00:53:58;;;;;;;11.70;9.57;;;;;;;;;;5004921;28;20453;-82
2022/06/08 00:56:28;;;;;;;12.20;8.57;;;;;;;;;;5005148;28;20491;-83
2022/06/08 00:58:56;;;;;;;10.53;8.70;;;;;;;;;;5004092;28;20481;-79
2022/06/08 01:01:23;;;;;;;8.93;8.10;;;;;;;;;;5004676;28;20466;-83
2022/06/08 01:03:50;;;;;;;11.80;8.93;;;;;;;;;;5006016;28;20458;-83
2022/06/08 01:06:19;;;;;;;10.00;8.40;;;;;;;;;;5004836;28;20850;-81
2022/06/08 01:08:46;;;;;;;10.27;7.90;;;;;;;;;;5006651;28;20451;-81
2022/06/08 01:11:13;;;;;;;11.33;8.80;;;;;;;;;;5003238;28;20437;-81
2022/06/08 01:13:42;;;;;;;10.70;8.93;;;;;;;;;;5004532;28;20465;-80
2022/06/08 01:16:11;;;;;;;9.97;8.30;;;;;;;;;;5004481;28;20485;-80
2022/06/08 01:18:38;;;;;;;9.90;8.60;;;;;;;;;;5004485;28;21019;-79
2022/06/08 01:21:31;;;;;;;10.60;9.53;;;;;;;;;;5004104;28;20438;-80
2022/06/08 01:23:59;;;;;;;11.23;9.03;;;;;;;;;;5005562;28;20462;-79
2022/06/08 01:26:30;;;;;;;12.23;7.90;;;;;;;;;;5004912;28;20463;-82
2022/06/08 01:29:02;;;;;;;12.17;8.63;;;;;;;;;;5004213;28;20931;-79
2022/06/08 01:31:31;;;;;;;10.20;9.20;;;;;;;;;;5002680;28;20458;-79
2022/06/08 01:34:02;;;;;;;11.43;8.80;;;;;;;;;;5006100;28;20455;-79
2022/06/08 01:36:34;;;;;;;9.80;8.80;;;;;;;;;;5004447;28;20463;-79
2022/06/08 01:39:05;;;;;;;11.77;9.90;;;;;;;;;;5004622;28;20500;-80
2022/06/08 01:41:55;;;;;;;8.70;7.87;;;;;;;;;;5004433;28;20472;-80
2022/06/08 01:44:34;;;;;;;10.47;7.73;;;;;;;;;;4989922;28;20462;-80
2022/06/08 01:47:06;;;;;;;14.03;8.73;;;;;;;;;;5005859;28;20477;-83
2022/06/08 01:49:35;;;;;;;14.00;8.90;;;;;;;;;;5005400;28;20881;-81
2022/06/08 01:52:22;;;;;;;9.40;8.50;;;;;;;;;;5004957;28;20466;-80
2022/06/08 01:54:58;;;;;;;13.00;10.13;;;;;;;;;;5005625;28;20500;-83
2022/06/08 01:57:32;;;;;;;12.40;8.93;;;;;;;;;;5004857;28;20476;-84
2022/06/08 02:00:02;;;;;;;9.97;8.80;;;;;;;;;;5003582;28;21069;-81
2022/06/08 02:02:30;;;;;;;10.07;8.70;;;;;;;;;;5003921;28;20486;-83
2022/06/08 02:05:00;;;;;;;12.70;8.77;;;;;;;;;;5004568;28;20813;-81
2022/06/08 02:07:30;;;;;;;11.17;9.67;;;;;;;;;;5004931;28;20542;-80
2022/06/08 02:10:02;;;;;;;13.93;9.90;;;;;;;;;;5004899;28;20442;-81
2022/06/08 02:12:30;;;;;;;12.63;10.70;;;;;;;;;;5003888;28;20895;-83
2022/06/08 02:14:58;;;;;;;13.47;9.87;;;;;;;;;;5004985;28;20474;-80
2022/06/08 02:17:27;;;;;;;16.43;11.70;;;;;;;;;;5004137;28;20466;-80
2022/06/08 02:19:56;;;;;;;12.07;10.77;;;;;;;;;;5004802;28;20485;-80
2022/06/08 02:22:26;;;;;;;12.23;10.90;;;;;;;;;;5004247;28;20500;-80
2022/06/08 02:24:55;;;;;;;13.80;11.50;;;;;;;;;;5003680;28;20541;-83
2022/06/08 02:27:25;;;;;;;15.47;10.60;;;;;;;;;;5003719;28;20533;-80
2022/06/08 02:29:53;;;;;;;15.73;10.53;;;;;;;;;;5004514;28;20439;-79
2022/06/08 02:35:09;;;;;;;18.50;10.70;;;;;;;;;;5005328;28;20512;-82
2022/06/08 02:37:37;;;;;;;13.70;10.50;;;;;;;;;;5005373;28;20469;-79
2022/06/08 02:40:05;;;;;;;13.60;10.60;;;;;;;;;;5004357;28;20490;-80
2022/06/08 02:42:34;;;;;;;14.27;10.77;;;;;;;;;;5002403;28;21038;-82
2022/06/08 02:45:05;;;;;;;17.10;12.33;;;;;;;;;;5003920;28;20470;-80
2022/06/08 02:47:34;;;;;;;15.70;11.87;;;;;;;;;;5003914;28;20473;-81
2022/06/08 02:50:01;;;;;;;15.03;11.30;;;;;;;;;;5003455;28;20865;-80
2022/06/08 02:52:27;;;;;;;15.27;13.17;;;;;;;;;;5002308;28;20474;-83
2022/06/08 02:54:54;;;;;;;16.73;12.80;;;;;;;;;;5004654;28;20568;-81
2022/06/08 02:57:25;;;;;;;15.73;12.70;;;;;;;;;;5002913;28;20524;-82
2022/06/08 02:59:57;;;;;;;16.23;12.90;;;;;;;;;;5003041;28;20535;-81
2022/06/08 03:02:25;;;;;;;15.77;13.33;;;;;;;;;;5003566;28;20531;-81
2022/06/08 03:04:55;;;;;;;14.17;12.50;;;;;;;;;;5004626;28;20520;-82
2022/06/08 03:07:24;;;;;;;13.67;12.00;;;;;;;;;;5004047;28;20560;-81
2022/06/08 03:09:51;;;;;;;18.30;13.03;;;;;;;;;;5004631;28;20438;-79
2022/06/08 03:12:19;;;;;;;16.50;12.50;;;;;;;;;;5005070;28;20469;-80
2022/06/08 03:14:47;;;;;;;18.37;14.07;;;;;;;;;;5003749;28;20446;-80
2022/06/08 03:17:16;;;;;;;21.63;12.40;;;;;;;;;;5005018;28;20468;-80
2022/06/08 03:19:43;;;;;;;19.00;10.97;;;;;;;;;;5003709;28;20533;-81
2022/06/08 03:22:09;;;;;;;16.40;11.80;;;;;;;;;;5003941;28;20481;-81
2022/06/08 03:24:35;;;;;;;20.67;11.77;;;;;;;;;;5004821;28;20493;-80
2022/06/08 03:27:03;;;;;;;16.03;12.30;;;;;;;;;;5003978;28;20478;-82
2022/06/08 03:29:31;;;;;;;16.23;12.90;;;;;;;;;;5004835;28;20447;-83
2022/06/08 03:31:57;;;;;;;15.30;11.83;;;;;;;;;;5003844;28;20891;-80
2022/06/08 03:34:25;;;;;;;13.30;11.53;;;;;;;;;;5004464;28;20866;-81
2022/06/08 03:36:52;;;;;;;12.70;11.23;;;;;;;;;;5004409;28;20830;-79
2022/06/08 03:39:18;;;;;;;13.20;10.50;;;;;;;;;;5004947;28;20900;-83
2022/06/08 03:41:45;;;;;;;16.77;13.33;;;;;;;;;;5005133;28;20482;-81
2022/06/08 03:44:11;;;;;;;19.87;13.07;;;;;;;;;;5003939;28;20451;-82
2022/06/08 03:46:39;;;;;;;17.23;13.87;;;;;;;;;;5043692;22;20529;-82
2022/06/08 03:49:07;;;;;;;17.53;13.40;;;;;;;;;;5030596;28;20845;-85
2022/06/08 03:51:35;;;;;;;17.50;12.03;;;;;;;;;;5031489;28;20465;-82
2022/06/08 03:54:03;;;;;;;16.03;12.20;;;;;;;;;;5032262;28;20441;-83
2022/06/08 03:56:31;;;;;;;21.20;13.40;;;;;;;;;;5017952;28;20503;-82
2022/06/08 03:58:57;;;;;;;17.90;13.40;;;;;;;;;;5012246;28;20863;-82
2022/06/08 04:01:24;;;;;;;16.33;13.10;;;;;;;;;;5012218;28;20494;-82
2022/06/08 04:03:52;;;;;;;16.83;13.20;;;;;;;;;;5012949;28;20448;-82
2022/06/08 04:06:19;;;;;;;21.20;13.93;;;;;;;;;;5012333;28;20465;-82
2022/06/08 04:08:46;;;;;;;19.63;14.43;;;;;;;;;;5011251;28;21245;-82
2022/06/08 04:11:13;;;;;;;19.83;14.77;;;;;;;;;;5009823;28;20454;-83
2022/06/08 04:13:40;;;;;;;23.10;15.30;;;;;;;;;;5010952;28;20463;-82
2022/06/08 04:16:06;;;;;;;20.13;14.27;;;;;;;;;;5010280;28;20477;-83
2022/06/08 04:18:33;;;;;;;21.10;15.40;;;;;;;;;;5013105;28;20533;-83
2022/06/08 04:21:01;;;;;;;22.57;15.10;;;;;;;;;;5011575;28;20504;-83
2022/06/08 04:23:28;;;;;;;22.63;16.03;;;;;;;;;;5011870;28;20469;-82
2022/06/08 04:25:56;;;;;;;20.50;16.47;;;;;;;;;;5011575;28;20520;-82
2022/06/08 04:28:23;;;;;;;21.10;15.77;;;;;;;;;;5010624;28;20482;-82
2022/06/08 04:30:50;;;;;;;20.50;15.80;;;;;;;;;;5011685;28;20460;-82
2022/06/08 04:33:17;;;;;;;23.00;16.47;;;;;;;;;;5012100;28;20485;-84
2022/06/08 04:35:43;;;;;;;23.53;17.37;;;;;;;;;;5010980;28;20469;-82
2022/06/08 04:38:10;;;;;;;23.40;17.43;;;;;;;;;;5010623;28;20473;-82
2022/06/08 04:40:37;;;;;;;22.90;17.07;;;;;;;;;;5011698;28;20488;-84
2022/06/08 04:43:05;;;;;;;19.10;17.03;;;;;;;;;;5010120;28;20998;-84
2022/06/08 04:45:32;;;;;;;22.03;17.80;;;;;;;;;;5013471;28;20482;-82
2022/06/08 04:47:58;;;;;;;26.50;18.00;;;;;;;;;;5013466;28;20474;-83
2022/06/08 04:50:25;;;;;;;23.60;17.30;;;;;;;;;;5013551;28;20434;-82
2022/06/08 04:52:51;;;;;;;21.67;17.43;;;;;;;;;;5014596;28;20469;-83
2022/06/08 04:55:18;;;;;;;24.67;18.67;;;;;;;;;;5016519;28;20474;-83
2022/06/08 04:57:44;;;;;;;24.90;18.93;;;;;;;;;;5014880;28;20440;-83
2022/06/08 05:00:14;;;;;;;22.67;16.50;;;;;;;;;;5015450;28;20479;-83
2022/06/08 05:02:47;;;;;;;22.90;15.93;;;;;;;;;;5015759;28;20469;-83
2022/06/08 05:05:15;;;;;;;21.23;15.37;;;;;;;;;;5016011;28;20486;-82
2022/06/08 05:07:41;;;;;;;24.83;16.30;;;;;;;;;;5015673;28;20504;-81
2022/06/08 05:10:08;;;;;;;24.27;16.73;;;;;;;;;;5016471;28;20438;-83
2022/06/08 05:12:36;;;;;;;22.33;16.90;;;;;;;;;;5014558;28;20462;-84
2022/06/08 05:15:05;;;;;;;23.77;17.40;;;;;;;;;;5015859;28;20447;-83
2022/06/08 05:17:33;;;;;;;25.00;16.90;;;;;;;;;;5013366;28;21061;-83
2022/06/08 05:19:59;;;;;;;24.17;19.07;;;;;;;;;;5014058;28;20498;-82
2022/06/08 05:22:26;;;;;;;25.73;17.97;;;;;;;;;;5014039;28;20488;-83
2022/06/08 05:24:52;;;;;;;28.03;18.30;;;;;;;;;;5014876;28;20476;-84
2022/06/08 05:27:18;;;;;;;24.00;16.70;;;;;;;;;;5012784;28;20498;-82
2022/06/08 05:29:45;;;;;;;29.60;19.23;;;;;;;;;;5014464;28;20442;-83
2022/06/08 05:32:11;;;;;;;29.10;20.27;;;;;;;;;;5013461;28;20452;-83
2022/06/08 05:34:38;;;;;;;27.00;19.10;;;;;;;;;;5013356;28;20497;-82
2022/06/08 05:37:05;;;;;;;30.90;20.67;;;;;;;;;;5013799;28;20478;-82
2022/06/08 05:39:31;;;;;;;25.97;17.87;;;;;;;;;;5011299;28;20440;-83
2022/06/08 05:41:57;;;;;;;25.53;21.00;;;;;;;;;;5011789;28;20477;-83
2022/06/08 05:44:23;;;;;;;27.33;21.20;;;;;;;;;;5014902;28;20474;-83
2022/06/08 05:46:50;;;;;;;28.87;19.97;;;;;;;;;;5012662;28;20486;-82
2022/06/08 05:49:17;;;;;;;24.70;19.80;;;;;;;;;;5011561;28;20432;-83
2022/06/08 05:51:46;;;;;;;22.40;18.07;;;;;;;;;;5012716;28;20444;-82
2022/06/08 05:54:12;;;;;;;30.43;19.77;;;;;;;;;;5014703;28;20421;-83
2022/06/08 05:56:40;;;;;;;29.43;19.57;;;;;;;;;;5011485;28;20989;-84
2022/06/08 05:59:06;;;;;;;22.33;18.27;;;;;;;;;;5013747;28;20434;-83
2022/06/08 06:01:33;;;;;;;27.63;21.23;;;;;;;;;;5012414;28;20468;-83
2022/06/08 06:04:02;;;;;;;22.87;19.97;;;;;;;;;;5013905;28;20464;-83
2022/06/08 06:06:29;;;;;;;26.00;20.53;;;;;;;;;;5012331;28;20445;-83
2022/06/08 06:08:57;;;;;;;25.37;19.93;;;;;;;;;;5012980;28;21072;-83
2022/06/08 06:11:23;;;;;;;30.87;20.83;;;;;;;;;;5012870;28;20420;-83
2022/06/08 06:13:49;;;;;;;26.10;21.53;;;;;;;;;;5013425;28;20455;-83
2022/06/08 06:16:16;;;;;;;29.40;19.67;;;;;;;;;;5013894;28;20456;-83
2022/06/08 06:18:42;;;;;;;22.70;18.80;;;;;;;;;;5013222;28;20504;-82
2022/06/08 06:21:10;;;;;;;23.90;19.27;;;;;;;;;;5012151;28;20476;-84
2022/06/08 06:23:36;;;;;;;21.83;17.10;;;;;;;;;;5012290;28;20463;-84
2022/06/08 06:26:04;;;;;;;27.43;19.47;;;;;;;;;;5013012;28;20536;-84
2022/06/08 06:28:31;;;;;;;33.83;19.60;;;;;;;;;;5013600;28;20503;-83
2022/06/08 06:30:57;;;;;;;24.87;20.00;;;;;;;;;;5011304;28;20417;-84
2022/06/08 06:33:23;;;;;;;28.17;19.90;;;;;;;;;;5013799;28;21053;-85
2022/06/08 06:35:50;;;;;;;24.43;18.60;;;;;;;;;;5013684;28;20441;-84
2022/06/08 06:38:16;;;;;;;26.70;20.00;;;;;;;;;;5011658;28;20443;-83
2022/06/08 06:40:42;;;;;;;25.50;19.70;;;;;;;;;;5011763;28;20460;-83
2022/06/08 06:43:11;;;;;;;24.80;17.57;;;;;;;;;;5010362;28;20452;-83
2022/06/08 06:45:37;;;;;;;22.60;18.53;;;;;;;;;;5013061;28;20451;-83
2022/06/08 06:48:04;;;;;;;24.70;19.77;;;;;;;;;;5011003;28;20441;-84
2022/06/08 06:50:31;;;;;;;25.83;19.97;;;;;;;;;;5011830;28;20418;-85
2022/06/08 06:52:59;;;;;;;30.37;19.70;;;;;;;;;;5013108;28;20477;-83
2022/06/08 06:55:26;;;;;;;25.97;19.73;;;;;;;;;;5010966;28;20491;-83
2022/06/08 06:57:54;;;;;;;25.70;18.27;;;;;;;;;;5010456;28;20470;-84
2022/06/08 07:00:22;;;;;;;20.70;16.90;;;;;;;;;;5011560;28;21301;-84
2022/06/08 07:02:48;;;;;;;27.33;17.23;;;;;;;;;;5013302;28;20503;-83
2022/06/08 07:05:16;;;;;;;22.70;17.70;;;;;;;;;;5012871;28;20450;-83
2022/06/08 07:07:42;;;;;;;26.57;17.07;;;;;;;;;;5013335;28;20470;-83
2022/06/08 07:10:09;;;;;;;24.77;17.57;;;;;;;;;;5015194;28;20965;-84
2022/06/08 07:12:35;;;;;;;22.80;18.43;;;;;;;;;;5013016;28;20493;-84
2022/06/08 07:15:01;;;;;;;21.47;17.30;;;;;;;;;;5013460;28;20458;-84
2022/06/08 07:17:29;;;;;;;35.73;19.47;;;;;;;;;;5014977;28;20465;-84
2022/06/08 07:19:55;;;;;;;20.90;17.50;;;;;;;;;;5013380;28;20447;-84
2022/06/08 07:22:21;;;;;;;20.20;16.77;;;;;;;;;;5014135;28;20473;-84
2022/06/08 07:24:48;;;;;;;22.53;18.63;;;;;;;;;;5013030;28;20451;-83
2022/06/08 07:27:14;;;;;;;26.40;18.80;;;;;;;;;;5013329;28;20515;-84
2022/06/08 07:29:40;;;;;;;23.80;16.83;;;;;;;;;;5013140;28;20449;-85
2022/06/08 07:32:07;;;;;;;21.53;17.30;;;;;;;;;;5014193;28;20482;-84
2022/06/08 07:34:35;;;;;;;23.47;18.90;;;;;;;;;;5012123;28;20446;-85
2022/06/08 07:37:01;;;;;;;26.03;18.37;;;;;;;;;;5014123;28;20493;-84
2022/06/08 07:39:27;;;;;;;21.50;18.87;;;;;;;;;;5010992;28;20497;-85
2022/06/08 07:41:54;;;;;;;20.93;17.37;;;;;;;;;;5011915;28;20471;-84
2022/06/08 07:44:20;;;;;;;21.10;18.07;;;;;;;;;;5013994;28;20795;-83
2022/06/08 07:46:47;;;;;;;19.50;17.47;;;;;;;;;;5012329;28;20497;-83
2022/06/08 07:51:59;;;;;;;21.93;17.57;;;;;;;;;;5012689;28;20481;-86
2022/06/08 07:54:26;;;;;;;20.20;17.90;;;;;;;;;;5009821;28;20901;-83
2022/06/08 07:56:53;;;;;;;26.27;17.93;;;;;;;;;;5010725;28;20466;-84
2022/06/08 07:59:19;;;;;;;25.63;18.50;;;;;;;;;;5011258;28;20454;-84
2022/06/08 08:01:45;;;;;;;22.20;17.97;;;;;;;;;;5013050;28;20476;-83
2022/06/08 08:04:12;;;;;;;18.53;16.53;;;;;;;;;;5013824;28;20500;-84
2022/06/08 08:06:38;;;;;;;21.13;18.00;;;;;;;;;;5010965;28;20466;-84
2022/06/08 08:09:09;;;;;;;27.87;18.60;;;;;;;;;;5013214;28;20466;-84
2022/06/08 08:11:36;;;;;;;23.10;17.97;;;;;;;;;;5011802;28;20528;-84
2022/06/08 08:14:02;;;;;;;22.97;18.27;;;;;;;;;;5012332;28;20461;-84
2022/06/08 08:16:28;;;;;;;23.00;17.60;;;;;;;;;;5011918;28;20479;-85
2022/06/08 08:18:55;;;;;;;24.20;18.30;;;;;;;;;;5013060;28;20814;-84
2022/06/08 08:21:21;;;;;;;23.97;18.37;;;;;;;;;;5015683;28;20492;-84
2022/06/08 08:23:47;;;;;;;20.70;17.77;;;;;;;;;;5016560;28;20497;-83
2022/06/08 08:26:15;;;;;;;23.90;18.33;;;;;;;;;;5015548;28;20516;-84
2022/06/08 08:28:41;;;;;;;24.47;18.53;;;;;;;;;;5016804;28;20500;-83
2022/06/08 08:31:07;;;;;;;21.50;17.10;;;;;;;;;;5015389;28;20446;-84
2022/06/08 08:33:34;;;;;;;22.20;17.53;;;;;;;;;;5013926;28;20470;-84
2022/06/08 08:36:00;;;;;;;21.50;17.07;;;;;;;;;;5015211;28;20469;-85
2022/06/08 08:38:26;;;;;;;19.20;16.13;;;;;;;;;;5014430;28;20469;-85
2022/06/08 08:40:54;;;;;;;20.07;17.90;;;;;;;;;;5015272;28;20485;-85
2022/06/08 08:43:23;;;;;;;24.73;17.23;;;;;;;;;;5015365;28;20467;-84
2022/06/08 08:46:00;;;;;;;23.27;18.03;;;;;;;;;;5014705;28;20498;-83
2022/06/08 08:48:28;;;;;;;18.87;16.83;;;;;;;;;;5014590;28;20469;-84
2022/06/08 08:50:57;;;;;;;17.80;15.80;;;;;;;;;;5014510;28;20453;-84
2022/06/08 08:53:25;;;;;;;20.30;17.17;;;;;;;;;;5013131;28;20515;-84
2022/06/08 08:55:52;;;;;;;21.07;18.20;;;;;;;;;;5014253;28;20478;-84
2022/06/08 08:58:19;;;;;;;17.20;15.40;;;;;;;;;;5015763;28;20529;-83
2022/06/08 09:00:50;;;;;;;24.30;15.93;;;;;;;;;;5014354;28;21006;-83
2022/06/08 09:03:28;;;;;;;21.40;17.43;;;;;;;;;;5012434;28;20462;-83
2022/06/08 09:05:56;;;;;;;18.13;16.23;;;;;;;;;;5014566;28;20461;-83
2022/06/08 09:08:23;;;;;;;17.63;14.67;;;;;;;;;;5013298;28;20461;-84
2022/06/08 09:10:50;;;;;;;19.17;16.93;;;;;;;;;;5014795;28;20539;-83
2022/06/08 09:13:22;;;;;;;17.60;14.93;;;;;;;;;;5015011;28;20461;-83
2022/06/08 09:15:50;;;;;;;18.77;16.47;;;;;;;;;;5015906;28;20478;-83
2022/06/08 09:18:21;;;;;;;21.30;18.87;;;;;;;;;;5013480;28;20998;-84
2022/06/08 09:20:48;;;;;;;20.50;17.27;;;;;;;;;;5014712;28;20481;-84
2022/06/08 09:23:22;;;;;;;20.00;17.33;;;;;;;;;;5013864;28;20470;-84
2022/06/08 09:26:01;;;;;;;20.13;17.50;;;;;;;;;;5014837;28;20469;-84
2022/06/08 09:28:29;;;;;;;19.13;16.30;;;;;;;;;;5014322;28;20530;-84
2022/06/08 09:30:57;;;;;;;21.17;16.50;;;;;;;;;;5014859;28;20469;-84
2022/06/08 09:33:26;;;;;;;18.30;15.97;;;;;;;;;;5012851;28;20515;-84
2022/06/08 09:35:55;;;;;;;19.20;17.20;;;;;;;;;;5012247;28;20516;-84
2022/06/08 09:38:23;;;;;;;17.73;15.87;;;;;;;;;;5010241;28;20552;-85
2022/06/08 09:40:56;;;;;;;24.40;18.67;;;;;;;;;;5010087;28;20477;-84
2022/06/08 09:43:29;;;;;;;20.07;17.20;;;;;;;;;;5012760;28;20469;-85
2022/06/08 09:45:59;;;;;;;18.50;16.57;;;;;;;;;;5011346;28;20482;-84
2022/06/08 09:51:29;;;;;;;19.70;17.27;;;;;;;;;;5009749;28;20427;-86
2022/06/08 09:54:02;;;;;;;20.77;17.57;;;;;;;;;;5008565;28;20450;-86
2022/06/08 09:56:33;;;;;;;22.00;18.10;;;;;;;;;;5012075;28;20473;-86
2022/06/08 09:59:07;;;;;;;23.10;18.60;;;;;;;;;;5008288;28;20466;-86
2022/06/08 10:01:38;;;;;;;19.77;17.67;;;;;;;;;;5010372;28;20474;-87
2022/06/08 10:04:12;;;;;;;20.90;17.43;;;;;;;;;;5009911;28;20466;-85
2022/06/08 10:06:42;;;;;;;20.50;15.33;;;;;;;;;;5008738;28;20986;-85
2022/06/08 10:09:16;;;;;;;17.40;15.37;;;;;;;;;;5005300;28;20473;-84
2022/06/08 10:11:46;;;;;;;17.27;14.20;;;;;;;;;;5004742;28;20535;-85
2022/06/08 10:14:16;;;;;;;18.03;15.70;;;;;;;;;;5004749;28;20450;-86
2022/06/08 10:16:47;;;;;;;20.93;15.90;;;;;;;;;;5009201;28;20516;-86
2022/06/08 10:19:17;;;;;;;15.47;13.90;;;;;;;;;;5013131;28;20492;-86
2022/06/08 10:21:44;;;;;;;18.00;15.60;;;;;;;;;;5003758;28;20983;-84
2022/06/08 10:24:13;;;;;;;18.60;16.07;;;;;;;;;;5010058;28;20473;-88
2022/06/08 10:26:42;;;;;;;16.90;14.80;;;;;;;;;;5006572;28;20541;-84
2022/06/08 10:29:11;;;;;;;17.13;13.40;;;;;;;;;;5009617;28;20504;-86
2022/06/08 10:31:39;;;;;;;16.60;13.57;;;;;;;;;;5006796;28;20478;-84
2022/06/08 10:34:11;;;;;;;16.47;13.23;;;;;;;;;;5008261;28;20505;-83
2022/06/08 10:36:37;;;;;;;14.53;13.03;;;;;;;;;;5007559;28;20469;-84
2022/06/08 10:39:05;;;;;;;16.70;13.80;;;;;;;;;;5008737;28;20469;-83
2022/06/08 10:44:26;;;;;;;11.10;9.10;;;;;;;;;;5005739;28;20422;-83
2022/06/08 10:46:53;;;;;;;11.87;10.33;;;;;;;;;;5011787;28;20480;-83
2022/06/08 10:49:41;;;;;;;16.90;13.97;;;;;;;;;;5007070;28;20474;-83
2022/06/08 10:52:14;;;;;;;15.57;13.87;;;;;;;;;;5007541;28;20835;-84
2022/06/08 10:54:57;;;;;;;16.87;12.70;;;;;;;;;;5008704;28;20454;-85
2022/06/08 10:57:41;;;;;;;12.00;10.63;;;;;;;;;;5008090;28;20490;-85
2022/06/08 11:00:27;;;;;;;12.33;11.00;;;;;;;;;;5003574;28;20792;-84
2022/06/08 11:02:57;;;;;;;12.50;11.13;;;;;;;;;;5006113;28;20476;-83
2022/06/08 11:05:31;;;;;;;14.43;12.33;;;;;;;;;;5016122;28;20939;-86
2022/06/08 11:08:15;;;;;;;11.60;10.43;;;;;;;;;;5011309;28;20477;-85
2022/06/08 11:10:53;;;;;;;12.10;9.90;;;;;;;;;;5011192;28;20458;-86
2022/06/08 11:13:24;;;;;;;15.93;10.80;;;;;;;;;;5011500;28;20461;-85
2022/06/08 11:15:55;;;;;;;11.93;9.90;;;;;;;;;;5010341;28;20454;-85
2022/06/08 11:18:26;;;;;;;10.40;8.60;;;;;;;;;;5009749;28;21094;-84
2022/06/08 11:21:16;;;;;;;10.37;9.33;;;;;;;;;;5011417;28;20457;-84
2022/06/08 11:23:44;;;;;;;9.00;8.10;;;;;;;;;;5012923;28;20501;-85
2022/06/08 11:26:15;;;;;;;9.77;8.77;;;;;;;;;;5011690;28;20438;-84
2022/06/08 11:28:44;;;;;;;11.13;9.93;;;;;;;;;;5010334;28;20485;-84
2022/06/08 11:31:12;;;;;;;8.63;7.83;;;;;;;;;;5005846;28;20540;-85
2022/06/08 11:33:59;;;;;;;10.13;9.00;;;;;;;;;;5011769;28;20508;-84
2022/06/08 11:36:41;;;;;;;9.80;8.80;;;;;;;;;;5006213;28;20446;-83
2022/06/08 11:39:18;;;;;;;10.00;8.07;;;;;;;;;;5010016;28;20466;-84
2022/06/08 11:41:56;;;;;;;10.13;8.17;;;;;;;;;;5006556;28;20477;-84
2022/06/08 11:44:22;;;;;;;8.40;7.57;;;;;;;;;;5009725;28;20463;-85
2022/06/08 11:46:50;;;;;;;7.23;6.53;;;;;;;;;;5018061;28;20485;-82
2022/06/08 11:49:33;;;;;;;7.60;6.80;;;;;;;;;;5004944;28;20536;-84
2022/06/08 11:52:16;;;;;;;9.17;8.30;;;;;;;;;;5009541;28;20470;-84
2022/06/08 11:54:42;;;;;;;9.47;8.33;;;;;;;;;;5011374;28;20433;-87
2022/06/08 11:57:12;;;;;;;11.33;7.80;;;;;;;;;;5009734;28;20471;-83
2022/06/08 11:59:40;;;;;;;7.53;6.73;;;;;;;;;;5008030;28;20515;-82
2022/06/08 12:02:16;;;;;;;7.90;7.10;;;;;;;;;;5002536;28;20478;-85
2022/06/08 12:04:44;;;;;;;7.40;6.67;;;;;;;;;;5009502;28;20445;-84
2022/06/08 12:07:28;;;;;;;7.73;6.37;;;;;;;;;;5009639;28;20492;-83
2022/06/08 12:09:54;;;;;;;10.17;8.27;;;;;;;;;;5008576;28;21140;-82
2022/06/08 12:12:23;;;;;;;7.20;6.50;;;;;;;;;;5007016;28;20458;-84
2022/06/08 12:14:49;;;;;;;9.27;7.37;;;;;;;;;;5010351;28;20834;-84
2022/06/08 12:17:24;;;;;;;9.33;7.80;;;;;;;;;;5003748;28;20469;-84
2022/06/08 12:19:53;;;;;;;11.83;8.27;;;;;;;;;;5008442;28;20489;-86
2022/06/08 12:22:21;;;;;;;8.73;7.10;;;;;;;;;;5007435;28;20480;-82
2022/06/08 12:25:02;;;;;;;7.77;6.97;;;;;;;;;;5003383;28;20446;-81
2022/06/08 12:27:29;;;;;;;8.47;7.60;;;;;;;;;;5000566;28;20906;-82
2022/06/08 12:29:57;;;;;;;8.47;6.10;;;;;;;;;;5002896;28;20529;-83
2022/06/08 12:32:28;;;;;;;9.50;6.77;;;;;;;;;;5002754;28;20469;-83
2022/06/08 12:35:10;;;;;;;7.07;4.97;;;;;;;;;;5001480;28;20866;-84
2022/06/08 12:37:39;;;;;;;7.80;6.83;;;;;;;;;;4999986;28;20482;-83
2022/06/08 12:40:25;;;;;;;9.27;8.27;;;;;;;;;;5005679;28;20444;-82
2022/06/08 12:42:55;;;;;;;8.93;7.70;;;;;;;;;;5004586;28;20948;-82
2022/06/08 12:45:25;;;;;;;10.70;7.63;;;;;;;;;;4999678;28;20453;-84
2022/06/08 12:47:51;;;;;;;8.70;6.97;;;;;;;;;;5001706;28;20478;-84
2022/06/08 12:50:23;;;;;;;6.10;5.50;;;;;;;;;;5002823;28;20472;-82
2022/06/08 12:52:49;;;;;;;7.97;6.63;;;;;;;;;;5006813;28;20470;-84
2022/06/08 12:55:17;;;;;;;8.83;6.47;;;;;;;;;;5001604;28;20940;-83
2022/06/08 12:57:44;;;;;;;8.27;7.47;;;;;;;;;;5002982;28;20473;-83
2022/06/08 13:00:15;;;;;;;7.13;5.80;;;;;;;;;;5007036;28;20453;-83
2022/06/08 13:02:42;;;;;;;5.93;5.30;;;;;;;;;;5007434;28;20481;-83
2022/06/08 13:05:16;;;;;;;6.03;5.13;;;;;;;;;;5004521;28;20474;-82
2022/06/08 13:07:42;;;;;;;5.80;4.80;;;;;;;;;;5008726;28;20478;-83
2022/06/08 13:10:09;;;;;;;6.97;5.07;;;;;;;;;;5008717;28;20453;-82
2022/06/08 13:12:38;;;;;;;5.27;4.70;;;;;;;;;;5012415;28;20519;-82
2022/06/08 13:15:14;;;;;;;6.57;5.40;;;;;;;;;;5009052;28;20485;-85
2022/06/08 13:17:42;;;;;;;6.10;4.73;;;;;;;;;;5009286;28;20839;-83
2022/06/08 13:20:14;;;;;;;5.00;4.40;;;;;;;;;;5013226;28;20476;-82
2022/06/08 13:22:41;;;;;;;4.20;3.80;;;;;;;;;;5004054;28;20503;-83
2022/06/08 13:25:08;;;;;;;7.13;5.33;;;;;;;;;;5008790;28;20512;-82
2022/06/08 13:27:36;;;;;;;5.17;4.10;;;;;;;;;;5009732;28;20532;-82
2022/06/08 13:30:03;;;;;;;4.67;4.27;;;;;;;;;;5005810;28;20526;-82
2022/06/08 13:32:29;;;;;;;4.97;4.33;;;;;;;;;;5010401;28;20459;-82
2022/06/08 13:34:57;;;;;;;6.60;3.97;;;;;;;;;;5010646;28;20446;-81
2022/06/08 13:37:34;;;;;;;4.10;3.70;;;;;;;;;;5004955;28;20536;-85
2022/06/08 13:40:00;;;;;;;4.70;4.30;;;;;;;;;;5010457;28;20454;-84
2022/06/08 13:42:28;;;;;;;5.57;4.57;;;;;;;;;;5009697;28;20481;-85
2022/06/08 13:44:55;;;;;;;5.30;4.50;;;;;;;;;;5008959;28;20525;-84
2022/06/08 13:47:24;;;;;;;5.07;4.67;;;;;;;;;;5012219;28;20501;-85
2022/06/08 13:49:52;;;;;;;5.53;5.03;;;;;;;;;;5011461;28;20461;-86
2022/06/08 13:52:21;;;;;;;4.87;4.37;;;;;;;;;;5007007;28;20549;-86
2022/06/08 13:54:52;;;;;;;4.73;4.33;;;;;;;;;;5009869;28;20445;-85
2022/06/08 13:57:19;;;;;;;7.00;5.10;;;;;;;;;;5019627;28;20525;-87
2022/06/08 13:59:46;;;;;;;5.37;4.87;;;;;;;;;;5004889;28;20548;-85
2022/06/08 14:02:15;;;;;;;7.73;4.97;;;;;;;;;;5009149;28;20505;-84
2022/06/08 14:04:42;;;;;;;5.13;4.70;;;;;;;;;;5010436;28;20441;-84
2022/06/08 14:15:23;;;;;;;5.87;5.33;;;;;;;;;;5006799;28;20527;-84
2022/06/08 14:17:50;;;;;;;4.47;4.07;;;;;;;;;;5005896;28;20465;-85
2022/06/08 14:20:23;;;;;;;5.30;4.90;;;;;;;;;;5003476;28;20441;-86
2022/06/08 14:22:49;;;;;;;4.70;4.23;;;;;;;;;;5004775;28;20478;-86
2022/06/08 14:25:17;;;;;;;5.57;3.90;;;;;;;;;;5010739;28;20434;-83
2022/06/08 14:27:43;;;;;;;4.87;4.47;;;;;;;;;;5006088;28;20568;-84
2022/06/08 14:30:12;;;;;;;4.03;3.40;;;;;;;;;;5007159;28;20827;-84
2022/06/08 14:32:40;;;;;;;6.20;3.60;;;;;;;;;;5013810;28;20869;-84
2022/06/08 14:35:09;;;;;;;3.70;2.80;;;;;;;;;;5015249;28;20458;-85
2022/06/08 14:37:35;;;;;;;3.27;3.07;;;;;;;;;;5004646;28;20477;-86
2022/06/08 14:40:01;;;;;;;3.30;3.00;;;;;;;;;;5006107;28;20505;-84
2022/06/08 14:42:29;;;;;;;2.60;2.50;;;;;;;;;;5009350;28;20478;-84
2022/06/08 14:44:57;;;;;;;4.37;3.13;;;;;;;;;;5010437;28;20456;-85
2022/06/08 14:47:26;;;;;;;3.50;3.30;;;;;;;;;;5012688;28;20894;-85
2022/06/08 14:49:52;;;;;;;3.20;2.90;;;;;;;;;;5010652;28;20452;-86
2022/06/08 14:52:21;;;;;;;3.13;2.83;;;;;;;;;;5007410;28;20524;-84
2022/06/08 14:54:47;;;;;;;2.60;2.40;;;;;;;;;;5009832;28;20477;-84